sensor_id;sensor_type;location;lat;lon;timestamp;P1;durP1;ratioP1;P2;durP2;ratioP2
35326;SDS011;21436;52.348;20.928;2023-04-15T00:02:03;14.43;;;9.30;;
35326;SDS011;21436;52.348;20.928;2023-04-15T00:04:45;15.88;;;10.15;;
35326;SDS011;21436;52.348;20.928;2023-04-15T00:07:13;17.23;;;9.30;;
35326;SDS011;21436;52.348;20.928;2023-04-15T00:09:41;14.00;;;8.40;;
35326;SDS011;21436;52.348;20.928;2023-04-15T00:12:08;16.05;;;8.80;;
35326;SDS011;21436;52.348;20.928;2023-04-15T00:14:37;17.02;;;9.40;;
35326;SDS011;21436;52.348;20.928;2023-04-15T00:17:04;17.45;;;9.18;;
35326;SDS011;21436;52.348;20.928;2023-04-15T00:19:32;15.13;;;9.45;;
35326;SDS011;21436;52.348;20.928;2023-04-15T00:21:59;16.85;;;9.32;;
35326;SDS011;21436;52.348;20.928;2023-04-15T00:24:27;13.70;;;8.82;;
35326;SDS011;21436;52.348;20.928;2023-04-15T00:26:55;14.10;;;7.75;;
35326;SDS011;21436;52.348;20.928;2023-04-15T00:29:22;13.05;;;7.88;;
35326;SDS011;21436;52.348;20.928;2023-04-15T00:31:50;16.63;;;8.02;;
35326;SDS011;21436;52.348;20.928;2023-04-15T00:34:17;12.32;;;8.23;;
35326;SDS011;21436;52.348;20.928;2023-04-15T00:36:45;12.73;;;7.38;;
35326;SDS011;21436;52.348;20.928;2023-04-15T00:39:12;12.07;;;7.65;;
35326;SDS011;21436;52.348;20.928;2023-04-15T00:41:42;13.45;;;8.75;;
35326;SDS011;21436;52.348;20.928;2023-04-15T00:44:09;15.63;;;9.65;;
35326;SDS011;21436;52.348;20.928;2023-04-15T00:46:37;15.90;;;9.07;;
35326;SDS011;21436;52.348;20.928;2023-04-15T00:49:07;16.38;;;10.10;;
35326;SDS011;21436;52.348;20.928;2023-04-15T00:51:34;15.02;;;9.15;;
35326;SDS011;21436;52.348;20.928;2023-04-15T00:54:03;18.17;;;9.40;;
35326;SDS011;21436;52.348;20.928;2023-04-15T00:56:30;14.45;;;8.90;;
35326;SDS011;21436;52.348;20.928;2023-04-15T00:59:04;15.05;;;9.30;;
35326;SDS011;21436;52.348;20.928;2023-04-15T01:01:33;14.98;;;9.88;;
35326;SDS011;21436;52.348;20.928;2023-04-15T01:04:02;13.65;;;9.13;;
35326;SDS011;21436;52.348;20.928;2023-04-15T01:06:30;14.73;;;8.85;;
35326;SDS011;21436;52.348;20.928;2023-04-15T01:08:58;18.08;;;10.88;;
35326;SDS011;21436;52.348;20.928;2023-04-15T01:11:26;13.80;;;9.10;;
35326;SDS011;21436;52.348;20.928;2023-04-15T01:13:54;16.85;;;10.07;;
35326;SDS011;21436;52.348;20.928;2023-04-15T01:16:23;13.15;;;7.13;;
35326;SDS011;21436;52.348;20.928;2023-04-15T01:18:51;20.02;;;11.20;;
35326;SDS011;21436;52.348;20.928;2023-04-15T01:21:18;15.38;;;9.88;;
35326;SDS011;21436;52.348;20.928;2023-04-15T01:23:46;16.33;;;9.45;;
35326;SDS011;21436;52.348;20.928;2023-04-15T01:26:14;13.30;;;8.18;;
35326;SDS011;21436;52.348;20.928;2023-04-15T01:28:42;17.38;;;10.75;;
35326;SDS011;21436;52.348;20.928;2023-04-15T01:31:10;19.52;;;11.25;;
35326;SDS011;21436;52.348;20.928;2023-04-15T01:33:40;16.65;;;9.85;;
35326;SDS011;21436;52.348;20.928;2023-04-15T01:36:08;20.55;;;11.27;;
35326;SDS011;21436;52.348;20.928;2023-04-15T01:38:37;16.35;;;11.00;;
35326;SDS011;21436;52.348;20.928;2023-04-15T01:41:04;18.10;;;12.05;;
35326;SDS011;21436;52.348;20.928;2023-04-15T01:43:34;15.48;;;9.38;;
35326;SDS011;21436;52.348;20.928;2023-04-15T01:46:04;15.70;;;10.25;;
35326;SDS011;21436;52.348;20.928;2023-04-15T01:48:33;16.73;;;11.55;;
35326;SDS011;21436;52.348;20.928;2023-04-15T01:51:02;19.63;;;12.27;;
35326;SDS011;21436;52.348;20.928;2023-04-15T01:53:29;22.40;;;12.50;;
35326;SDS011;21436;52.348;20.928;2023-04-15T01:55:57;19.58;;;12.55;;
35326;SDS011;21436;52.348;20.928;2023-04-15T01:58:24;22.48;;;12.85;;
35326;SDS011;21436;52.348;20.928;2023-04-15T02:00:51;20.20;;;12.70;;
35326;SDS011;21436;52.348;20.928;2023-04-15T02:03:19;18.45;;;12.27;;
35326;SDS011;21436;52.348;20.928;2023-04-15T02:05:46;18.42;;;12.00;;
35326;SDS011;21436;52.348;20.928;2023-04-15T02:08:14;20.00;;;12.82;;
35326;SDS011;21436;52.348;20.928;2023-04-15T02:10:41;20.40;;;12.52;;
35326;SDS011;21436;52.348;20.928;2023-04-15T02:13:09;22.08;;;13.95;;
35326;SDS011;21436;52.348;20.928;2023-04-15T02:15:36;23.73;;;14.52;;
35326;SDS011;21436;52.348;20.928;2023-04-15T02:18:04;22.13;;;14.05;;
35326;SDS011;21436;52.348;20.928;2023-04-15T02:20:31;23.38;;;12.48;;
35326;SDS011;21436;52.348;20.928;2023-04-15T02:22:58;22.23;;;14.02;;
35326;SDS011;21436;52.348;20.928;2023-04-15T02:25:25;23.33;;;13.85;;
35326;SDS011;21436;52.348;20.928;2023-04-15T02:27:53;23.70;;;14.20;;
35326;SDS011;21436;52.348;20.928;2023-04-15T02:30:21;25.13;;;14.50;;
35326;SDS011;21436;52.348;20.928;2023-04-15T02:32:50;25.70;;;16.05;;
35326;SDS011;21436;52.348;20.928;2023-04-15T02:35:17;23.80;;;14.68;;
35326;SDS011;21436;52.348;20.928;2023-04-15T02:37:45;27.98;;;14.25;;
35326;SDS011;21436;52.348;20.928;2023-04-15T02:40:13;23.27;;;14.90;;
35326;SDS011;21436;52.348;20.928;2023-04-15T02:42:40;25.23;;;14.75;;
35326;SDS011;21436;52.348;20.928;2023-04-15T02:45:11;26.70;;;15.88;;
35326;SDS011;21436;52.348;20.928;2023-04-15T02:47:40;26.42;;;14.52;;
35326;SDS011;21436;52.348;20.928;2023-04-15T02:50:09;25.08;;;16.40;;
35326;SDS011;21436;52.348;20.928;2023-04-15T02:52:40;27.05;;;16.08;;
35326;SDS011;21436;52.348;20.928;2023-04-15T02:55:09;28.95;;;17.10;;
35326;SDS011;21436;52.348;20.928;2023-04-15T02:57:37;25.75;;;15.45;;
35326;SDS011;21436;52.348;20.928;2023-04-15T03:00:06;25.27;;;15.85;;
35326;SDS011;21436;52.348;20.928;2023-04-15T03:02:39;25.30;;;16.13;;
35326;SDS011;21436;52.348;20.928;2023-04-15T03:05:11;25.38;;;15.15;;
35326;SDS011;21436;52.348;20.928;2023-04-15T03:07:46;31.45;;;15.73;;
35326;SDS011;21436;52.348;20.928;2023-04-15T03:10:13;25.05;;;15.30;;
35326;SDS011;21436;52.348;20.928;2023-04-15T03:12:41;23.38;;;14.20;;
35326;SDS011;21436;52.348;20.928;2023-04-15T03:15:13;25.15;;;15.00;;
35326;SDS011;21436;52.348;20.928;2023-04-15T03:17:44;22.27;;;13.88;;
35326;SDS011;21436;52.348;20.928;2023-04-15T03:20:12;24.25;;;14.50;;
35326;SDS011;21436;52.348;20.928;2023-04-15T03:22:40;23.70;;;14.95;;
35326;SDS011;21436;52.348;20.928;2023-04-15T03:25:07;18.48;;;11.55;;
35326;SDS011;21436;52.348;20.928;2023-04-15T03:27:36;25.17;;;14.57;;
35326;SDS011;21436;52.348;20.928;2023-04-15T03:30:04;20.75;;;13.93;;
35326;SDS011;21436;52.348;20.928;2023-04-15T03:32:36;24.48;;;14.90;;
35326;SDS011;21436;52.348;20.928;2023-04-15T03:35:05;21.92;;;14.82;;
35326;SDS011;21436;52.348;20.928;2023-04-15T03:37:33;20.38;;;12.18;;
35326;SDS011;21436;52.348;20.928;2023-04-15T03:40:00;24.50;;;15.30;;
35326;SDS011;21436;52.348;20.928;2023-04-15T03:42:28;18.33;;;10.05;;
35326;SDS011;21436;52.348;20.928;2023-04-15T03:44:55;18.45;;;10.93;;
35326;SDS011;21436;52.348;20.928;2023-04-15T03:47:22;23.15;;;13.60;;
35326;SDS011;21436;52.348;20.928;2023-04-15T03:49:50;22.58;;;13.38;;
35326;SDS011;21436;52.348;20.928;2023-04-15T03:52:18;24.48;;;13.75;;
35326;SDS011;21436;52.348;20.928;2023-04-15T03:54:45;25.42;;;14.95;;
35326;SDS011;21436;52.348;20.928;2023-04-15T03:57:13;26.35;;;15.38;;
35326;SDS011;21436;52.348;20.928;2023-04-15T03:59:40;28.83;;;15.35;;
35326;SDS011;21436;52.348;20.928;2023-04-15T04:02:08;25.08;;;14.80;;
35326;SDS011;21436;52.348;20.928;2023-04-15T04:04:35;24.58;;;14.15;;
35326;SDS011;21436;52.348;20.928;2023-04-15T04:07:03;22.15;;;13.80;;
35326;SDS011;21436;52.348;20.928;2023-04-15T04:09:30;21.50;;;13.85;;
35326;SDS011;21436;52.348;20.928;2023-04-15T04:11:58;22.30;;;12.90;;
35326;SDS011;21436;52.348;20.928;2023-04-15T04:14:25;21.65;;;12.45;;
35326;SDS011;21436;52.348;20.928;2023-04-15T04:16:55;23.92;;;13.48;;
35326;SDS011;21436;52.348;20.928;2023-04-15T04:19:23;21.38;;;13.70;;
35326;SDS011;21436;52.348;20.928;2023-04-15T04:21:50;21.08;;;12.77;;
35326;SDS011;21436;52.348;20.928;2023-04-15T04:24:18;16.95;;;10.85;;
35326;SDS011;21436;52.348;20.928;2023-04-15T04:26:45;25.35;;;13.02;;
35326;SDS011;21436;52.348;20.928;2023-04-15T04:29:13;24.83;;;12.90;;
35326;SDS011;21436;52.348;20.928;2023-04-15T04:31:40;21.15;;;13.35;;
35326;SDS011;21436;52.348;20.928;2023-04-15T04:34:07;24.10;;;13.60;;
35326;SDS011;21436;52.348;20.928;2023-04-15T04:36:35;20.10;;;10.50;;
35326;SDS011;21436;52.348;20.928;2023-04-15T04:39:03;17.80;;;11.02;;
35326;SDS011;21436;52.348;20.928;2023-04-15T04:41:30;23.52;;;13.80;;
35326;SDS011;21436;52.348;20.928;2023-04-15T04:43:58;25.42;;;12.98;;
35326;SDS011;21436;52.348;20.928;2023-04-15T04:46:26;22.98;;;14.15;;
35326;SDS011;21436;52.348;20.928;2023-04-15T04:48:53;22.77;;;13.30;;
35326;SDS011;21436;52.348;20.928;2023-04-15T04:51:21;22.65;;;12.00;;
35326;SDS011;21436;52.348;20.928;2023-04-15T04:53:48;23.40;;;13.95;;
35326;SDS011;21436;52.348;20.928;2023-04-15T04:56:15;19.48;;;11.38;;
35326;SDS011;21436;52.348;20.928;2023-04-15T04:58:42;27.98;;;14.80;;
35326;SDS011;21436;52.348;20.928;2023-04-15T05:01:10;22.23;;;12.18;;
35326;SDS011;21436;52.348;20.928;2023-04-15T05:03:39;24.88;;;14.20;;
35326;SDS011;21436;52.348;20.928;2023-04-15T05:06:06;27.33;;;14.90;;
35326;SDS011;21436;52.348;20.928;2023-04-15T05:08:34;24.55;;;14.77;;
35326;SDS011;21436;52.348;20.928;2023-04-15T05:11:03;27.23;;;15.07;;
35326;SDS011;21436;52.348;20.928;2023-04-15T05:13:31;25.98;;;15.23;;
35326;SDS011;21436;52.348;20.928;2023-04-15T05:15:59;25.00;;;15.13;;
35326;SDS011;21436;52.348;20.928;2023-04-15T05:18:26;34.70;;;16.92;;
35326;SDS011;21436;52.348;20.928;2023-04-15T05:20:54;23.08;;;13.75;;
35326;SDS011;21436;52.348;20.928;2023-04-15T05:23:21;25.92;;;15.30;;
35326;SDS011;21436;52.348;20.928;2023-04-15T05:25:48;27.13;;;15.10;;
35326;SDS011;21436;52.348;20.928;2023-04-15T05:28:16;24.67;;;13.23;;
35326;SDS011;21436;52.348;20.928;2023-04-15T05:30:43;27.02;;;14.13;;
35326;SDS011;21436;52.348;20.928;2023-04-15T05:33:11;24.95;;;15.13;;
35326;SDS011;21436;52.348;20.928;2023-04-15T05:35:39;29.98;;;15.02;;
35326;SDS011;21436;52.348;20.928;2023-04-15T05:38:06;28.65;;;13.90;;
35326;SDS011;21436;52.348;20.928;2023-04-15T05:40:34;22.33;;;12.75;;
35326;SDS011;21436;52.348;20.928;2023-04-15T05:43:01;26.88;;;14.48;;
35326;SDS011;21436;52.348;20.928;2023-04-15T05:45:29;27.63;;;15.20;;
35326;SDS011;21436;52.348;20.928;2023-04-15T05:47:56;26.40;;;13.95;;
35326;SDS011;21436;52.348;20.928;2023-04-15T05:50:24;28.20;;;15.85;;
35326;SDS011;21436;52.348;20.928;2023-04-15T05:52:52;28.85;;;15.82;;
35326;SDS011;21436;52.348;20.928;2023-04-15T05:55:19;29.30;;;16.42;;
35326;SDS011;21436;52.348;20.928;2023-04-15T05:57:47;26.88;;;15.50;;
35326;SDS011;21436;52.348;20.928;2023-04-15T06:00:14;26.52;;;13.57;;
35326;SDS011;21436;52.348;20.928;2023-04-15T06:02:42;24.70;;;15.90;;
35326;SDS011;21436;52.348;20.928;2023-04-15T06:05:10;26.58;;;16.33;;
35326;SDS011;21436;52.348;20.928;2023-04-15T06:07:38;28.00;;;16.27;;
35326;SDS011;21436;52.348;20.928;2023-04-15T06:10:06;23.30;;;14.05;;
35326;SDS011;21436;52.348;20.928;2023-04-15T06:12:34;21.60;;;13.82;;
35326;SDS011;21436;52.348;20.928;2023-04-15T06:15:02;25.88;;;16.42;;
35326;SDS011;21436;52.348;20.928;2023-04-15T06:17:30;30.23;;;15.70;;
35326;SDS011;21436;52.348;20.928;2023-04-15T06:19:58;24.33;;;15.45;;
35326;SDS011;21436;52.348;20.928;2023-04-15T06:22:25;27.58;;;15.88;;
35326;SDS011;21436;52.348;20.928;2023-04-15T06:24:53;24.55;;;13.13;;
35326;SDS011;21436;52.348;20.928;2023-04-15T06:27:20;23.77;;;14.30;;
35326;SDS011;21436;52.348;20.928;2023-04-15T06:29:49;26.05;;;14.27;;
35326;SDS011;21436;52.348;20.928;2023-04-15T06:32:17;23.73;;;13.20;;
35326;SDS011;21436;52.348;20.928;2023-04-15T06:34:44;25.23;;;14.52;;
35326;SDS011;21436;52.348;20.928;2023-04-15T06:37:12;23.63;;;14.45;;
35326;SDS011;21436;52.348;20.928;2023-04-15T06:39:42;21.15;;;11.55;;
35326;SDS011;21436;52.348;20.928;2023-04-15T06:42:10;23.75;;;14.95;;
35326;SDS011;21436;52.348;20.928;2023-04-15T06:44:38;23.45;;;13.65;;
35326;SDS011;21436;52.348;20.928;2023-04-15T06:47:06;25.27;;;15.25;;
35326;SDS011;21436;52.348;20.928;2023-04-15T06:49:35;23.83;;;14.52;;
35326;SDS011;21436;52.348;20.928;2023-04-15T06:52:04;22.65;;;12.52;;
35326;SDS011;21436;52.348;20.928;2023-04-15T06:54:31;19.98;;;12.32;;
35326;SDS011;21436;52.348;20.928;2023-04-15T06:56:59;21.85;;;12.57;;
35326;SDS011;21436;52.348;20.928;2023-04-15T06:59:27;20.20;;;10.75;;
35326;SDS011;21436;52.348;20.928;2023-04-15T07:01:55;26.17;;;14.55;;
35326;SDS011;21436;52.348;20.928;2023-04-15T07:04:23;24.63;;;14.15;;
35326;SDS011;21436;52.348;20.928;2023-04-15T07:06:51;24.98;;;12.55;;
35326;SDS011;21436;52.348;20.928;2023-04-15T07:09:19;24.98;;;12.95;;
35326;SDS011;21436;52.348;20.928;2023-04-15T07:11:46;22.30;;;12.45;;
35326;SDS011;21436;52.348;20.928;2023-04-15T07:14:13;27.75;;;14.55;;
35326;SDS011;21436;52.348;20.928;2023-04-15T07:16:41;22.25;;;12.70;;
35326;SDS011;21436;52.348;20.928;2023-04-15T07:19:09;21.55;;;13.32;;
35326;SDS011;21436;52.348;20.928;2023-04-15T07:21:36;22.40;;;12.40;;
35326;SDS011;21436;52.348;20.928;2023-04-15T07:24:07;22.55;;;12.60;;
35326;SDS011;21436;52.348;20.928;2023-04-15T07:26:36;24.42;;;13.13;;
35326;SDS011;21436;52.348;20.928;2023-04-15T07:29:03;25.27;;;14.13;;
35326;SDS011;21436;52.348;20.928;2023-04-15T07:31:31;17.67;;;10.25;;
35326;SDS011;21436;52.348;20.928;2023-04-15T07:33:58;19.48;;;11.70;;
35326;SDS011;21436;52.348;20.928;2023-04-15T07:36:25;19.08;;;10.70;;
35326;SDS011;21436;52.348;20.928;2023-04-15T07:38:53;25.38;;;13.60;;
35326;SDS011;21436;52.348;20.928;2023-04-15T07:41:21;21.92;;;12.00;;
35326;SDS011;21436;52.348;20.928;2023-04-15T07:43:48;19.65;;;11.88;;
35326;SDS011;21436;52.348;20.928;2023-04-15T07:46:16;19.23;;;12.10;;
35326;SDS011;21436;52.348;20.928;2023-04-15T07:48:44;18.67;;;11.85;;
35326;SDS011;21436;52.348;20.928;2023-04-15T07:51:12;15.80;;;9.68;;
35326;SDS011;21436;52.348;20.928;2023-04-15T07:53:40;17.02;;;9.95;;
35326;SDS011;21436;52.348;20.928;2023-04-15T07:56:08;18.52;;;10.25;;
35326;SDS011;21436;52.348;20.928;2023-04-15T07:58:35;14.90;;;8.57;;
35326;SDS011;21436;52.348;20.928;2023-04-15T08:01:03;14.93;;;9.07;;
35326;SDS011;21436;52.348;20.928;2023-04-15T08:03:31;15.63;;;9.15;;
35326;SDS011;21436;52.348;20.928;2023-04-15T08:06:00;15.75;;;10.70;;
35326;SDS011;21436;52.348;20.928;2023-04-15T08:08:27;18.95;;;10.55;;
35326;SDS011;21436;52.348;20.928;2023-04-15T08:10:55;23.05;;;12.48;;
35326;SDS011;21436;52.348;20.928;2023-04-15T08:13:24;16.88;;;8.07;;
35326;SDS011;21436;52.348;20.928;2023-04-15T08:15:56;19.67;;;9.93;;
35326;SDS011;21436;52.348;20.928;2023-04-15T08:18:41;24.10;;;9.13;;
35326;SDS011;21436;52.348;20.928;2023-04-15T08:21:08;11.80;;;7.53;;
35326;SDS011;21436;52.348;20.928;2023-04-15T08:23:37;14.07;;;9.30;;
35326;SDS011;21436;52.348;20.928;2023-04-15T08:26:05;16.65;;;9.80;;
35326;SDS011;21436;52.348;20.928;2023-04-15T08:28:33;14.18;;;9.50;;
35326;SDS011;21436;52.348;20.928;2023-04-15T08:31:00;13.93;;;8.70;;
35326;SDS011;21436;52.348;20.928;2023-04-15T08:33:28;13.65;;;8.95;;
35326;SDS011;21436;52.348;20.928;2023-04-15T08:35:55;13.70;;;9.50;;
35326;SDS011;21436;52.348;20.928;2023-04-15T08:38:23;14.07;;;9.18;;
35326;SDS011;21436;52.348;20.928;2023-04-15T08:40:51;13.02;;;8.75;;
35326;SDS011;21436;52.348;20.928;2023-04-15T08:43:22;11.70;;;7.70;;
35326;SDS011;21436;52.348;20.928;2023-04-15T08:45:53;12.23;;;6.97;;
35326;SDS011;21436;52.348;20.928;2023-04-15T08:48:24;13.47;;;8.60;;
35326;SDS011;21436;52.348;20.928;2023-04-15T08:50:55;10.48;;;6.65;;
35326;SDS011;21436;52.348;20.928;2023-04-15T08:53:23;13.05;;;8.48;;
35326;SDS011;21436;52.348;20.928;2023-04-15T08:55:51;9.23;;;6.50;;
35326;SDS011;21436;52.348;20.928;2023-04-15T08:58:21;12.43;;;7.20;;
35326;SDS011;21436;52.348;20.928;2023-04-15T09:00:49;12.32;;;8.00;;
35326;SDS011;21436;52.348;20.928;2023-04-15T09:03:17;9.98;;;6.90;;
35326;SDS011;21436;52.348;20.928;2023-04-15T09:05:45;10.25;;;6.55;;
35326;SDS011;21436;52.348;20.928;2023-04-15T09:08:13;12.00;;;7.65;;
35326;SDS011;21436;52.348;20.928;2023-04-15T09:10:41;9.40;;;6.97;;
35326;SDS011;21436;52.348;20.928;2023-04-15T09:13:08;12.02;;;7.47;;
35326;SDS011;21436;52.348;20.928;2023-04-15T09:15:39;9.95;;;6.68;;
35326;SDS011;21436;52.348;20.928;2023-04-15T09:18:07;10.23;;;6.82;;
35326;SDS011;21436;52.348;20.928;2023-04-15T09:20:38;10.57;;;6.80;;
35326;SDS011;21436;52.348;20.928;2023-04-15T09:23:11;9.82;;;6.97;;
35326;SDS011;21436;52.348;20.928;2023-04-15T09:25:40;11.60;;;7.18;;
35326;SDS011;21436;52.348;20.928;2023-04-15T09:28:09;9.55;;;6.43;;
35326;SDS011;21436;52.348;20.928;2023-04-15T09:30:37;8.43;;;5.95;;
35326;SDS011;21436;52.348;20.928;2023-04-15T09:33:05;8.80;;;6.13;;
35326;SDS011;21436;52.348;20.928;2023-04-15T09:35:36;11.63;;;6.70;;
35326;SDS011;21436;52.348;20.928;2023-04-15T09:38:05;7.95;;;5.10;;
35326;SDS011;21436;52.348;20.928;2023-04-15T09:40:35;8.88;;;6.05;;
35326;SDS011;21436;52.348;20.928;2023-04-15T09:43:07;9.95;;;6.13;;
35326;SDS011;21436;52.348;20.928;2023-04-15T09:45:36;10.38;;;5.57;;
35326;SDS011;21436;52.348;20.928;2023-04-15T09:50:53;9.52;;;6.57;;
35326;SDS011;21436;52.348;20.928;2023-04-15T09:53:24;9.57;;;5.53;;
35326;SDS011;21436;52.348;20.928;2023-04-15T09:55:56;8.57;;;4.97;;
35326;SDS011;21436;52.348;20.928;2023-04-15T09:58:28;7.65;;;5.75;;
35326;SDS011;21436;52.348;20.928;2023-04-15T10:00:57;9.80;;;6.10;;
35326;SDS011;21436;52.348;20.928;2023-04-15T10:03:27;10.77;;;6.88;;
35326;SDS011;21436;52.348;20.928;2023-04-15T10:05:57;9.00;;;5.82;;
35326;SDS011;21436;52.348;20.928;2023-04-15T10:08:29;7.47;;;5.20;;
35326;SDS011;21436;52.348;20.928;2023-04-15T10:11:01;7.40;;;4.18;;
35326;SDS011;21436;52.348;20.928;2023-04-15T10:13:30;8.43;;;5.75;;
35326;SDS011;21436;52.348;20.928;2023-04-15T10:16:05;7.15;;;5.28;;
35326;SDS011;21436;52.348;20.928;2023-04-15T10:18:35;8.98;;;6.35;;
35326;SDS011;21436;52.348;20.928;2023-04-15T10:21:04;10.40;;;6.47;;
35326;SDS011;21436;52.348;20.928;2023-04-15T10:23:33;8.68;;;6.00;;
35326;SDS011;21436;52.348;20.928;2023-04-15T10:26:00;9.10;;;6.25;;
35326;SDS011;21436;52.348;20.928;2023-04-15T10:28:29;8.35;;;5.78;;
35326;SDS011;21436;52.348;20.928;2023-04-15T10:30:56;8.00;;;5.15;;
35326;SDS011;21436;52.348;20.928;2023-04-15T10:33:26;6.72;;;5.10;;
35326;SDS011;21436;52.348;20.928;2023-04-15T10:35:54;9.25;;;5.47;;
35326;SDS011;21436;52.348;20.928;2023-04-15T10:41:13;10.50;;;6.82;;
35326;SDS011;21436;52.348;20.928;2023-04-15T10:49:12;8.43;;;5.47;;
35326;SDS011;21436;52.348;20.928;2023-04-15T10:51:50;9.90;;;5.80;;
35326;SDS011;21436;52.348;20.928;2023-04-15T10:59:35;9.13;;;6.45;;
35326;SDS011;21436;52.348;20.928;2023-04-15T11:02:06;8.45;;;6.00;;
35326;SDS011;21436;52.348;20.928;2023-04-15T11:04:56;8.65;;;5.88;;
35326;SDS011;21436;52.348;20.928;2023-04-15T11:07:38;9.52;;;5.97;;
35326;SDS011;21436;52.348;20.928;2023-04-15T11:12:49;8.98;;;5.82;;
35326;SDS011;21436;52.348;20.928;2023-04-15T11:18:15;5.68;;;4.55;;
35326;SDS011;21436;52.348;20.928;2023-04-15T11:20:47;8.32;;;5.88;;
35326;SDS011;21436;52.348;20.928;2023-04-15T11:23:32;8.52;;;4.55;;
35326;SDS011;21436;52.348;20.928;2023-04-15T11:26:09;6.63;;;4.53;;
35326;SDS011;21436;52.348;20.928;2023-04-15T11:28:39;7.03;;;4.68;;
35326;SDS011;21436;52.348;20.928;2023-04-15T11:36:26;9.20;;;5.07;;
35326;SDS011;21436;52.348;20.928;2023-04-15T11:38:56;5.85;;;4.22;;
35326;SDS011;21436;52.348;20.928;2023-04-15T11:41:24;4.70;;;3.17;;
35326;SDS011;21436;52.348;20.928;2023-04-15T11:43:52;5.20;;;4.30;;
35326;SDS011;21436;52.348;20.928;2023-04-15T11:46:20;7.80;;;4.63;;
35326;SDS011;21436;52.348;20.928;2023-04-15T11:48:48;5.88;;;4.32;;
35326;SDS011;21436;52.348;20.928;2023-04-15T11:51:17;5.30;;;4.00;;
35326;SDS011;21436;52.348;20.928;2023-04-15T11:53:47;6.97;;;3.25;;
35326;SDS011;21436;52.348;20.928;2023-04-15T11:56:20;5.03;;;3.97;;
35326;SDS011;21436;52.348;20.928;2023-04-15T11:58:52;6.53;;;3.88;;
35326;SDS011;21436;52.348;20.928;2023-04-15T12:01:58;6.60;;;4.70;;
35326;SDS011;21436;52.348;20.928;2023-04-15T12:04:18;7.10;;;3.88;;
35326;SDS011;21436;52.348;20.928;2023-04-15T12:06:51;6.93;;;4.85;;
35326;SDS011;21436;52.348;20.928;2023-04-15T12:09:19;5.82;;;4.07;;
35326;SDS011;21436;52.348;20.928;2023-04-15T12:11:48;7.03;;;4.72;;
35326;SDS011;21436;52.348;20.928;2023-04-15T12:14:19;7.07;;;3.88;;
35326;SDS011;21436;52.348;20.928;2023-04-15T12:16:51;10.02;;;2.83;;
35326;SDS011;21436;52.348;20.928;2023-04-15T12:19:30;5.75;;;3.90;;
35326;SDS011;21436;52.348;20.928;2023-04-15T12:22:05;4.80;;;3.90;;
35326;SDS011;21436;52.348;20.928;2023-04-15T12:24:36;6.60;;;4.22;;
35326;SDS011;21436;52.348;20.928;2023-04-15T12:27:05;6.30;;;4.10;;
35326;SDS011;21436;52.348;20.928;2023-04-15T12:29:34;5.60;;;3.47;;
35326;SDS011;21436;52.348;20.928;2023-04-15T12:32:10;5.10;;;4.30;;
35326;SDS011;21436;52.348;20.928;2023-04-15T12:34:57;7.55;;;4.53;;
35326;SDS011;21436;52.348;20.928;2023-04-15T12:37:25;5.97;;;4.60;;
35326;SDS011;21436;52.348;20.928;2023-04-15T12:39:53;7.22;;;4.85;;
35326;SDS011;21436;52.348;20.928;2023-04-15T12:42:21;7.25;;;5.35;;
35326;SDS011;21436;52.348;20.928;2023-04-15T12:44:48;7.70;;;5.20;;
35326;SDS011;21436;52.348;20.928;2023-04-15T12:47:16;9.10;;;5.43;;
35326;SDS011;21436;52.348;20.928;2023-04-15T12:49:43;6.88;;;5.40;;
35326;SDS011;21436;52.348;20.928;2023-04-15T12:52:11;8.63;;;4.45;;
35326;SDS011;21436;52.348;20.928;2023-04-15T12:54:39;8.73;;;5.95;;
35326;SDS011;21436;52.348;20.928;2023-04-15T12:57:07;7.03;;;5.25;;
35326;SDS011;21436;52.348;20.928;2023-04-15T12:59:35;6.75;;;4.55;;
35326;SDS011;21436;52.348;20.928;2023-04-15T13:02:03;6.13;;;4.88;;
35326;SDS011;21436;52.348;20.928;2023-04-15T13:04:31;6.93;;;4.65;;
35326;SDS011;21436;52.348;20.928;2023-04-15T13:07:00;8.10;;;4.88;;
35326;SDS011;21436;52.348;20.928;2023-04-15T13:09:28;6.65;;;5.07;;
35326;SDS011;21436;52.348;20.928;2023-04-15T13:11:56;8.90;;;5.50;;
35326;SDS011;21436;52.348;20.928;2023-04-15T13:14:24;8.27;;;5.68;;
35326;SDS011;21436;52.348;20.928;2023-04-15T13:16:52;9.40;;;5.93;;
35326;SDS011;21436;52.348;20.928;2023-04-15T13:19:19;10.07;;;6.10;;
35326;SDS011;21436;52.348;20.928;2023-04-15T13:21:47;10.90;;;6.47;;
35326;SDS011;21436;52.348;20.928;2023-04-15T13:24:15;13.48;;;7.25;;
35326;SDS011;21436;52.348;20.928;2023-04-15T13:26:43;7.13;;;5.63;;
35326;SDS011;21436;52.348;20.928;2023-04-15T13:29:10;9.48;;;5.10;;
35326;SDS011;21436;52.348;20.928;2023-04-15T13:31:38;7.80;;;4.50;;
35326;SDS011;21436;52.348;20.928;2023-04-15T13:34:05;7.45;;;4.78;;
35326;SDS011;21436;52.348;20.928;2023-04-15T13:36:33;4.90;;;3.83;;
35326;SDS011;21436;52.348;20.928;2023-04-15T13:39:01;9.15;;;5.13;;
35326;SDS011;21436;52.348;20.928;2023-04-15T13:41:29;7.78;;;4.20;;
35326;SDS011;21436;52.348;20.928;2023-04-15T13:43:57;3.53;;;2.65;;
35326;SDS011;21436;52.348;20.928;2023-04-15T13:46:26;3.85;;;2.45;;
35326;SDS011;21436;52.348;20.928;2023-04-15T13:48:54;6.82;;;2.22;;
35326;SDS011;21436;52.348;20.928;2023-04-15T13:51:22;2.80;;;1.70;;
35326;SDS011;21436;52.348;20.928;2023-04-15T13:53:49;4.38;;;1.65;;
35326;SDS011;21436;52.348;20.928;2023-04-15T13:56:16;4.25;;;1.90;;
35326;SDS011;21436;52.348;20.928;2023-04-15T13:58:44;3.05;;;1.75;;
35326;SDS011;21436;52.348;20.928;2023-04-15T14:01:12;3.40;;;2.25;;
35326;SDS011;21436;52.348;20.928;2023-04-15T14:03:39;4.70;;;3.33;;
35326;SDS011;21436;52.348;20.928;2023-04-15T14:06:07;6.35;;;3.05;;
35326;SDS011;21436;52.348;20.928;2023-04-15T14:08:35;5.40;;;3.40;;
35326;SDS011;21436;52.348;20.928;2023-04-15T14:11:02;4.75;;;2.70;;
35326;SDS011;21436;52.348;20.928;2023-04-15T14:13:30;6.47;;;3.90;;
35326;SDS011;21436;52.348;20.928;2023-04-15T14:15:57;5.05;;;2.95;;
35326;SDS011;21436;52.348;20.928;2023-04-15T14:18:25;3.50;;;2.42;;
35326;SDS011;21436;52.348;20.928;2023-04-15T14:20:52;4.05;;;2.58;;
35326;SDS011;21436;52.348;20.928;2023-04-15T14:23:20;3.78;;;2.83;;
35326;SDS011;21436;52.348;20.928;2023-04-15T14:25:47;4.47;;;2.63;;
35326;SDS011;21436;52.348;20.928;2023-04-15T14:28:15;3.75;;;2.78;;
35326;SDS011;21436;52.348;20.928;2023-04-15T14:30:43;5.00;;;2.60;;
35326;SDS011;21436;52.348;20.928;2023-04-15T14:33:11;4.53;;;3.10;;
35326;SDS011;21436;52.348;20.928;2023-04-15T14:35:38;4.22;;;2.83;;
35326;SDS011;21436;52.348;20.928;2023-04-15T14:38:06;4.43;;;3.28;;
35326;SDS011;21436;52.348;20.928;2023-04-15T14:40:37;3.90;;;2.70;;
35326;SDS011;21436;52.348;20.928;2023-04-15T14:43:05;3.65;;;2.30;;
35326;SDS011;21436;52.348;20.928;2023-04-15T14:45:32;3.40;;;2.42;;
35326;SDS011;21436;52.348;20.928;2023-04-15T14:48:00;2.67;;;2.10;;
35326;SDS011;21436;52.348;20.928;2023-04-15T14:50:28;4.05;;;2.03;;
35326;SDS011;21436;52.348;20.928;2023-04-15T14:52:56;3.22;;;2.25;;
35326;SDS011;21436;52.348;20.928;2023-04-15T14:55:23;3.05;;;2.30;;
35326;SDS011;21436;52.348;20.928;2023-04-15T14:57:51;3.25;;;2.00;;